createdAt,value
2022-10-11T00:00:49.730Z,11.40
2022-10-11T00:03:16.530Z,11.40
2022-10-11T00:05:44.490Z,11.40
2022-10-11T00:08:12.035Z,11.40
2022-10-11T00:10:39.117Z,11.30
2022-10-11T00:13:06.215Z,11.30
2022-10-11T00:15:32.995Z,11.30
2022-10-11T00:18:04.486Z,11.30
2022-10-11T00:20:32.105Z,11.20
2022-10-11T00:22:58.801Z,11.30
2022-10-11T00:25:25.713Z,11.20
2022-10-11T00:27:52.495Z,11.20
2022-10-11T00:30:19.261Z,11.20
2022-10-11T00:32:45.978Z,11.20
2022-10-11T00:35:12.752Z,11.10
2022-10-11T00:37:39.534Z,11.10
2022-10-11T00:40:09.035Z,11.10
2022-10-11T00:42:35.839Z,11.10
2022-10-11T00:45:21.091Z,11.10
2022-10-11T00:47:47.870Z,11.10
2022-10-11T00:50:22.798Z,11.10
2022-10-11T00:52:52.749Z,11.10
2022-10-11T00:55:21.112Z,11.10
2022-10-11T00:57:49.575Z,11.10
2022-10-11T01:00:16.694Z,11.10
2022-10-11T01:02:43.652Z,11.10
2022-10-11T01:05:28.689Z,11.10
2022-10-11T01:07:57.719Z,11.10
2022-10-11T01:10:24.479Z,11.10
2022-10-11T01:12:51.241Z,11.10
2022-10-11T01:15:23.447Z,11.10
2022-10-11T01:18:00.410Z,11.10
2022-10-11T01:20:30.898Z,11.10
2022-10-11T01:23:16.512Z,11.10
2022-10-11T01:25:55.336Z,11.20
2022-10-11T01:28:22.174Z,11.10
2022-10-11T01:30:49.618Z,11.10
2022-10-11T01:33:21.006Z,11.20
2022-10-11T01:35:50.791Z,11.20
2022-10-11T01:38:21.366Z,11.30
2022-10-11T01:40:54.240Z,11.40
2022-10-11T01:43:21.677Z,11.40
2022-10-11T01:45:51.309Z,11.50
2022-10-11T01:48:18.095Z,11.50
2022-10-11T01:50:46.286Z,11.50
2022-10-11T01:53:25.235Z,11.50
2022-10-11T01:55:57.649Z,11.50
2022-10-11T01:58:30.282Z,11.50
2022-10-11T02:01:14.101Z,11.50
2022-10-11T02:03:46.774Z,11.50
2022-10-11T02:06:17.744Z,11.50
2022-10-11T02:08:50.314Z,11.50
2022-10-11T02:11:22.690Z,11.50
2022-10-11T02:13:56.354Z,11.50
2022-10-11T02:16:26.370Z,11.40
2022-10-11T02:18:54.669Z,11.40
2022-10-11T02:21:23.080Z,11.40
2022-10-11T02:23:54.873Z,11.40
2022-10-11T02:26:22.051Z,11.40
2022-10-11T02:28:49.865Z,11.30
2022-10-11T02:31:17.655Z,11.20
2022-10-11T02:33:53.621Z,11.10
2022-10-11T02:36:24.971Z,11.00
2022-10-11T02:38:54.786Z,11.00
2022-10-11T02:41:25.443Z,10.80
2022-10-11T02:43:57.581Z,10.80
2022-10-11T02:46:25.195Z,10.80
2022-10-11T02:48:52.052Z,10.80
2022-10-11T02:51:18.870Z,10.80
2022-10-11T02:53:45.610Z,10.70
2022-10-11T02:56:12.406Z,10.70
2022-10-11T02:58:39.177Z,10.70
2022-10-11T03:01:06.518Z,10.70
2022-10-11T03:03:33.309Z,10.70
2022-10-11T03:06:01.008Z,10.70
2022-10-11T03:08:28.157Z,10.70
2022-10-11T03:10:54.965Z,10.60
2022-10-11T03:13:21.722Z,10.60
2022-10-11T03:16:07.178Z,10.50
2022-10-11T03:18:34.113Z,10.50
2022-10-11T03:21:00.859Z,10.50
2022-10-11T03:23:27.620Z,10.50
2022-10-11T03:25:54.363Z,10.50
2022-10-11T03:28:21.193Z,10.60
2022-10-11T03:30:48.431Z,10.60
2022-10-11T03:33:15.691Z,10.60
2022-10-11T03:35:43.897Z,10.70
2022-10-11T03:38:13.047Z,10.70
2022-10-11T03:40:40.517Z,10.80
2022-10-11T03:43:07.307Z,10.80
2022-10-11T03:45:34.423Z,10.90
2022-10-11T03:48:01.187Z,10.90
2022-10-11T03:50:28.533Z,10.90
2022-10-11T03:52:55.291Z,10.90
2022-10-11T03:55:22.055Z,10.90
2022-10-11T03:57:48.789Z,11.00
2022-10-11T04:00:15.591Z,10.90
2022-10-11T04:02:42.366Z,10.90
2022-10-11T04:05:09.328Z,10.90
2022-10-11T04:07:36.067Z,10.90
2022-10-11T04:10:02.943Z,10.80
2022-10-11T04:12:29.671Z,10.80
2022-10-11T04:14:56.434Z,10.70
2022-10-11T04:17:23.210Z,10.70
2022-10-11T04:19:49.952Z,10.60
2022-10-11T04:22:16.733Z,10.60
2022-10-11T04:24:43.458Z,10.60
2022-10-11T04:27:10.396Z,10.60
2022-10-11T04:29:37.114Z,10.60
2022-10-11T04:32:04.070Z,10.60
2022-10-11T04:34:31.462Z,10.60
2022-10-11T04:36:58.295Z,10.50
2022-10-11T04:39:25.103Z,10.50
2022-10-11T04:41:51.898Z,10.50
2022-10-11T04:44:18.669Z,10.50
2022-10-11T04:46:45.412Z,10.50
2022-10-11T04:49:12.259Z,10.50
2022-10-11T04:51:39.032Z,10.50
2022-10-11T04:54:05.871Z,10.50
2022-10-11T04:56:32.701Z,10.40
2022-10-11T04:58:59.442Z,10.40
2022-10-11T05:01:26.161Z,10.40
2022-10-11T05:03:52.895Z,10.40
2022-10-11T05:06:19.841Z,10.40
2022-10-11T05:08:46.603Z,10.30
2022-10-11T05:11:15.933Z,10.30
2022-10-11T05:13:43.541Z,10.30
2022-10-11T05:16:11.281Z,10.30
2022-10-11T05:18:39.386Z,10.30
2022-10-11T05:21:14.615Z,10.30
2022-10-11T05:23:41.438Z,10.30
2022-10-11T05:26:08.800Z,10.30
2022-10-11T05:28:35.930Z,10.20
2022-10-11T05:31:02.733Z,10.30
2022-10-11T05:33:29.495Z,10.30
2022-10-11T05:35:56.229Z,10.20
2022-10-11T05:38:23.041Z,10.20
2022-10-11T05:40:49.986Z,10.30
2022-10-11T05:43:16.705Z,10.30
2022-10-11T05:45:43.654Z,10.20
2022-10-11T05:48:10.757Z,10.30
2022-10-11T05:50:37.863Z,10.20
2022-10-11T05:53:05.277Z,10.20
2022-10-11T05:55:41.896Z,10.20
2022-10-11T05:58:10.576Z,10.30
2022-10-11T06:00:40.231Z,10.30
2022-10-11T06:03:08.483Z,10.30
2022-10-11T06:05:35.335Z,10.20
2022-10-11T06:08:02.476Z,10.30
2022-10-11T06:10:29.458Z,10.30
2022-10-11T06:12:56.306Z,10.30
2022-10-11T06:15:23.231Z,10.30
2022-10-11T06:17:49.957Z,10.30
2022-10-11T06:20:16.696Z,10.30
2022-10-11T06:22:43.468Z,10.30
2022-10-11T06:25:10.539Z,10.30
2022-10-11T06:27:37.304Z,10.30
2022-10-11T06:30:04.741Z,10.30
2022-10-11T06:32:32.005Z,10.30
2022-10-11T06:34:58.747Z,10.30
2022-10-11T06:37:25.474Z,10.30
2022-10-11T06:39:52.260Z,10.30
2022-10-11T06:42:18.963Z,10.30
2022-10-11T06:44:45.763Z,10.30
2022-10-11T06:47:12.503Z,10.30
2022-10-11T06:49:39.231Z,10.30
2022-10-11T06:52:06.016Z,10.30
2022-10-11T06:54:32.722Z,10.30
2022-10-11T06:56:59.431Z,10.30
2022-10-11T06:59:26.311Z,10.30
2022-10-11T07:01:53.007Z,10.30
2022-10-11T07:04:19.735Z,10.30
2022-10-11T07:06:46.497Z,10.30
2022-10-11T07:09:13.288Z,10.30
2022-10-11T07:11:40.084Z,10.30
2022-10-11T07:14:08.068Z,10.30
2022-10-11T07:16:36.074Z,10.30
2022-10-11T07:19:03.912Z,10.30
2022-10-11T07:21:31.352Z,10.30
2022-10-11T07:23:58.364Z,10.30
2022-10-11T07:26:25.303Z,10.40
2022-10-11T07:28:52.159Z,10.40
2022-10-11T07:31:20.061Z,10.40
2022-10-11T07:33:46.959Z,10.40
2022-10-11T07:36:14.187Z,10.40
2022-10-11T07:38:41.511Z,10.40
2022-10-11T07:41:08.812Z,10.40
2022-10-11T07:43:35.969Z,10.50
2022-10-11T07:46:04.659Z,10.50
2022-10-11T07:48:32.141Z,10.60
2022-10-11T07:51:06.754Z,10.60
2022-10-11T07:53:37.919Z,10.60
2022-10-11T07:56:04.959Z,10.70
2022-10-11T07:58:31.843Z,10.60
2022-10-11T08:00:58.629Z,10.60
2022-10-11T08:03:25.398Z,10.60
2022-10-11T08:05:52.597Z,10.60
2022-10-11T08:08:19.523Z,10.70
2022-10-11T08:10:46.342Z,10.60
2022-10-11T08:13:13.113Z,10.60
2022-10-11T08:15:39.833Z,10.70
2022-10-11T08:18:06.543Z,10.60
2022-10-11T08:20:33.359Z,10.70
2022-10-11T08:23:00.380Z,10.60
2022-10-11T08:25:27.243Z,10.60
2022-10-11T08:27:53.988Z,10.70
2022-10-11T08:30:20.739Z,10.70
2022-10-11T08:32:47.498Z,10.60
2022-10-11T08:35:14.316Z,10.70
2022-10-11T08:37:41.099Z,10.70
2022-10-11T08:40:08.155Z,10.80
2022-10-11T08:42:56.314Z,10.70
2022-10-11T08:45:52.359Z,10.70
2022-10-11T08:48:21.559Z,10.70
2022-10-11T08:50:50.785Z,10.80
2022-10-11T08:53:29.865Z,10.90
2022-10-11T08:55:56.632Z,10.80
2022-10-11T08:58:34.632Z,10.80
2022-10-11T09:01:01.597Z,10.80
2022-10-11T09:03:31.307Z,10.80
2022-10-11T09:06:00.777Z,10.90
2022-10-11T09:08:34.871Z,10.90
2022-10-11T09:11:20.191Z,10.90
2022-10-11T09:13:52.756Z,11.00
2022-10-11T09:16:25.347Z,11.00
2022-10-11T09:18:52.109Z,11.10
2022-10-11T09:21:35.845Z,11.10
2022-10-11T09:24:21.117Z,11.10
2022-10-11T09:26:54.244Z,11.10
2022-10-11T09:29:20.956Z,11.10
2022-10-11T09:31:49.258Z,11.20
2022-10-11T09:34:16.239Z,11.20
2022-10-11T09:36:42.978Z,11.20
2022-10-11T09:39:29.122Z,11.20
2022-10-11T09:42:07.049Z,11.10
2022-10-11T09:44:55.014Z,11.10
2022-10-11T09:47:24.215Z,11.20
2022-10-11T09:49:53.291Z,11.30
2022-10-11T09:52:20.911Z,11.30
2022-10-11T09:54:49.328Z,11.30
2022-10-11T09:57:25.141Z,11.40
2022-10-11T10:00:00.770Z,11.40
2022-10-11T10:02:31.175Z,11.40
2022-10-11T10:05:14.190Z,11.40
2022-10-11T10:07:56.633Z,11.40
2022-10-11T10:10:32.273Z,11.40
2022-10-11T10:13:00.138Z,11.50
2022-10-11T10:15:34.595Z,11.50
2022-10-11T10:18:01.880Z,11.60
2022-10-11T10:20:33.270Z,11.70
2022-10-11T10:23:07.835Z,11.80
2022-10-11T10:25:39.591Z,11.90
2022-10-11T10:28:22.666Z,11.90
2022-10-11T10:30:54.600Z,12.00
2022-10-11T10:33:25.815Z,11.90
2022-10-11T10:35:55.415Z,11.80
2022-10-11T10:38:31.656Z,11.90
2022-10-11T10:41:01.242Z,11.90
2022-10-11T10:43:32.566Z,11.90
2022-10-11T10:46:05.489Z,11.90
2022-10-11T10:49:02.046Z,11.90
2022-10-11T10:51:28.449Z,12.00
2022-10-11T10:54:24.475Z,11.90
2022-10-11T10:56:52.905Z,11.90
2022-10-11T10:59:29.852Z,12.10
2022-10-11T11:02:15.914Z,12.20
2022-10-11T11:05:08.891Z,12.20
2022-10-11T11:07:35.606Z,12.00
2022-10-11T11:10:02.284Z,12.00
2022-10-11T11:12:39.127Z,12.10
2022-10-11T11:15:11.759Z,12.20
2022-10-11T11:17:57.403Z,12.20
2022-10-11T11:20:32.525Z,12.10
2022-10-11T11:22:59.263Z,12.10
2022-10-11T11:25:45.241Z,12.10
2022-10-11T11:28:12.131Z,12.20
2022-10-11T11:30:47.883Z,12.10
2022-10-11T11:33:35.851Z,12.20
2022-10-11T11:36:05.719Z,12.20
2022-10-11T11:38:35.682Z,12.20
2022-10-11T11:41:06.230Z,12.40
2022-10-11T11:43:42.257Z,12.40
2022-10-11T11:46:13.735Z,12.50
2022-10-11T11:48:41.177Z,12.40
2022-10-11T11:51:34.232Z,12.40
2022-10-11T11:54:10.201Z,12.40
2022-10-11T11:56:55.939Z,12.30
2022-10-11T11:59:41.161Z,12.30
2022-10-11T12:02:26.736Z,12.50
2022-10-11T12:04:53.622Z,12.50
2022-10-11T12:07:22.247Z,12.50
2022-10-11T12:09:51.817Z,12.50
2022-10-11T12:12:26.762Z,12.50
2022-10-11T12:15:02.525Z,12.60
2022-10-11T12:17:29.364Z,12.50
2022-10-11T12:20:04.978Z,12.50
2022-10-11T12:22:31.689Z,12.60
2022-10-11T12:25:00.286Z,12.70
2022-10-11T12:27:43.494Z,12.70
2022-10-11T12:30:28.634Z,12.60
2022-10-11T12:33:03.415Z,12.60
2022-10-11T12:35:30.108Z,12.60
2022-10-11T12:38:15.556Z,12.60
2022-10-11T12:40:43.815Z,12.70
2022-10-11T12:43:22.513Z,12.70
2022-10-11T12:45:49.545Z,12.70
2022-10-11T12:48:16.252Z,12.70
2022-10-11T12:51:12.083Z,12.80
2022-10-11T12:54:14.735Z,12.90
2022-10-11T12:56:47.369Z,13.00
2022-10-11T12:59:22.219Z,13.10
2022-10-11T13:01:51.369Z,13.10
2022-10-11T13:04:20.530Z,13.30
2022-10-11T13:06:53.497Z,13.10
2022-10-11T13:09:28.763Z,13.00
2022-10-11T13:12:06.776Z,13.00
2022-10-11T13:14:37.687Z,13.00
2022-10-11T13:17:13.666Z,13.10
2022-10-11T13:22:22.985Z,13.00
2022-10-11T13:24:49.745Z,13.10
2022-10-11T13:27:21.331Z,13.10
2022-10-11T13:29:49.045Z,13.20
2022-10-11T13:32:26.260Z,13.20
2022-10-11T13:37:28.822Z,13.20
2022-10-11T13:39:56.646Z,13.20
2022-10-11T13:42:32.626Z,13.20
2022-10-11T13:44:59.850Z,13.30
2022-10-11T13:47:28.504Z,13.30
2022-10-11T13:50:10.925Z,13.40
2022-10-11T13:52:48.946Z,13.40
2022-10-11T13:55:34.604Z,13.40
2022-10-11T13:58:03.404Z,13.40
2022-10-11T14:00:35.273Z,13.30
2022-10-11T14:03:18.103Z,13.20
2022-10-11T14:05:54.099Z,13.00
2022-10-11T14:08:20.784Z,12.80
2022-10-11T14:10:49.836Z,12.80
2022-10-11T14:13:24.329Z,12.80
2022-10-11T14:16:00.950Z,12.90
2022-10-11T14:18:36.612Z,13.00
2022-10-11T14:21:23.591Z,13.00
2022-10-11T14:23:52.070Z,13.00
2022-10-11T14:26:19.341Z,12.90
2022-10-11T14:28:49.342Z,12.90
2022-10-11T14:31:16.317Z,12.90
2022-10-11T14:33:43.195Z,13.00
2022-10-11T14:36:12.149Z,13.10
2022-10-11T14:38:38.895Z,13.20
2022-10-11T14:41:07.574Z,13.30
2022-10-11T14:43:34.286Z,13.40
2022-10-11T14:46:01.035Z,13.30
2022-10-11T14:48:50.274Z,13.30
2022-10-11T14:51:15.402Z,13.30
2022-10-11T14:53:46.331Z,13.30
2022-10-11T14:56:15.695Z,13.30
2022-10-11T14:58:45.771Z,13.10
2022-10-11T15:01:14.089Z,13.00
2022-10-11T15:03:41.151Z,12.90
2022-10-11T15:06:13.256Z,12.70
2022-10-11T15:08:40.011Z,12.60
2022-10-11T15:11:06.800Z,12.60
2022-10-11T15:13:33.547Z,12.50
2022-10-11T15:16:00.346Z,12.50
2022-10-11T15:18:27.120Z,12.40
2022-10-11T15:20:56.062Z,12.30
2022-10-11T15:23:24.310Z,12.30
2022-10-11T15:25:51.021Z,12.20
2022-10-11T15:28:25.970Z,12.20
2022-10-11T15:30:53.278Z,12.20
2022-10-11T15:33:20.095Z,12.10
2022-10-11T15:35:46.897Z,12.10
2022-10-11T15:38:24.261Z,12.00
2022-10-11T15:40:51.436Z,12.00
2022-10-11T15:43:23.460Z,12.00
2022-10-11T15:45:51.415Z,12.00
2022-10-11T15:48:21.607Z,11.90
2022-10-11T15:50:49.535Z,11.90
2022-10-11T15:53:17.443Z,11.90
2022-10-11T15:55:51.488Z,11.80
2022-10-11T15:58:22.408Z,11.80
2022-10-11T16:00:51.286Z,11.80
2022-10-11T16:03:18.032Z,11.80
2022-10-11T16:05:44.806Z,11.80
2022-10-11T16:08:11.743Z,11.80
2022-10-11T16:10:38.541Z,11.80
2022-10-11T16:13:05.830Z,11.80
2022-10-11T16:15:32.699Z,11.80
2022-10-11T16:17:59.404Z,11.80
2022-10-11T16:20:26.139Z,11.70
2022-10-11T16:22:54.297Z,11.80
2022-10-11T16:25:21.601Z,11.70
2022-10-11T16:27:48.343Z,11.70
2022-10-11T16:30:16.204Z,11.70
2022-10-11T16:32:44.439Z,11.70
2022-10-11T16:35:12.237Z,11.80
2022-10-11T16:37:39.360Z,11.90
2022-10-11T16:40:06.852Z,11.90
2022-10-11T16:42:34.293Z,12.00
2022-10-11T16:45:01.050Z,12.00
2022-10-11T16:47:27.761Z,12.00
2022-10-11T16:49:54.554Z,12.00
2022-10-11T16:52:21.312Z,12.00
2022-10-11T16:54:48.241Z,12.00
2022-10-11T16:57:15.895Z,12.00
2022-10-11T16:59:42.721Z,12.00
2022-10-11T17:02:14.570Z,12.00
2022-10-11T17:04:41.305Z,12.00
2022-10-11T17:07:13.030Z,12.00
2022-10-11T17:09:44.025Z,12.00
2022-10-11T17:12:13.160Z,12.00
2022-10-11T17:14:40.833Z,12.00
2022-10-11T17:17:08.890Z,12.00
2022-10-11T17:19:40.198Z,12.00
2022-10-11T17:22:10.424Z,12.00
2022-10-11T17:24:38.008Z,12.00
2022-10-11T17:27:05.127Z,12.00
2022-10-11T17:29:32.311Z,12.00
2022-10-11T17:31:59.186Z,12.00
2022-10-11T17:34:25.930Z,12.00
2022-10-11T17:36:52.712Z,12.00
2022-10-11T17:39:20.815Z,12.00
2022-10-11T17:41:47.765Z,12.00
2022-10-11T17:44:17.250Z,12.00
2022-10-11T17:46:43.991Z,11.90
2022-10-11T17:49:11.608Z,11.90
2022-10-11T17:51:39.122Z,11.90
2022-10-11T17:54:06.280Z,11.80
2022-10-11T17:56:37.584Z,11.80
2022-10-11T17:59:04.885Z,11.90
2022-10-11T18:01:31.892Z,11.90
2022-10-11T18:04:00.126Z,11.80
2022-10-11T18:06:28.900Z,11.80
2022-10-11T18:08:57.306Z,11.80
2022-10-11T18:11:24.147Z,11.80
2022-10-11T18:13:52.287Z,11.80
2022-10-11T18:16:20.548Z,11.80
2022-10-11T18:18:47.817Z,11.80
2022-10-11T18:21:14.626Z,11.80
2022-10-11T18:23:41.791Z,11.80
2022-10-11T18:26:09.709Z,11.80
2022-10-11T18:28:36.650Z,11.80
2022-10-11T18:31:11.489Z,11.80
2022-10-11T18:33:39.541Z,11.80
2022-10-11T18:36:07.092Z,11.80
2022-10-11T18:38:34.123Z,11.80
2022-10-11T18:41:05.558Z,11.80
2022-10-11T18:43:32.806Z,11.80
2022-10-11T18:46:07.622Z,11.70
2022-10-11T18:48:34.911Z,11.70
2022-10-11T18:51:12.423Z,11.70
2022-10-11T18:53:39.169Z,11.70
2022-10-11T18:56:07.233Z,11.70
2022-10-11T18:58:35.361Z,11.70
2022-10-11T19:01:09.563Z,11.60
2022-10-11T19:03:36.686Z,11.60
2022-10-11T19:06:08.168Z,11.60
2022-10-11T19:08:35.341Z,11.60
2022-10-11T19:11:06.470Z,11.60
2022-10-11T19:13:33.543Z,11.60
2022-10-11T19:16:20.675Z,11.60
2022-10-11T19:18:50.972Z,11.60
2022-10-11T19:21:17.905Z,11.60
2022-10-11T19:23:45.773Z,11.60
2022-10-11T19:26:22.914Z,11.60
2022-10-11T19:28:54.904Z,11.60
2022-10-11T19:31:21.753Z,11.60
2022-10-11T19:33:49.570Z,11.50
2022-10-11T19:36:16.714Z,11.50
2022-10-11T19:38:44.844Z,11.40
2022-10-11T19:41:12.137Z,11.40
2022-10-11T19:43:39.149Z,11.50
2022-10-11T19:46:07.576Z,11.40
2022-10-11T19:48:36.728Z,11.40
2022-10-11T19:51:05.397Z,11.40
2022-10-11T19:53:32.260Z,11.40
2022-10-11T19:56:02.808Z,11.40
2022-10-11T19:58:29.766Z,11.40
2022-10-11T20:01:04.204Z,11.40
2022-10-11T20:03:31.179Z,11.40
2022-10-11T20:06:05.706Z,11.40
2022-10-11T20:08:32.940Z,11.40
2022-10-11T20:11:00.633Z,11.40
2022-10-11T20:13:32.403Z,11.30
2022-10-11T20:16:02.197Z,11.30
2022-10-11T20:18:29.386Z,11.30
2022-10-11T20:20:57.416Z,11.20
2022-10-11T20:23:27.571Z,11.30
2022-10-11T20:26:08.787Z,11.20
2022-10-11T20:28:36.206Z,11.20
2022-10-11T20:31:04.466Z,11.20
2022-10-11T20:33:34.165Z,11.20
2022-10-11T20:36:02.122Z,11.10
2022-10-11T20:38:29.508Z,11.10
2022-10-11T20:40:56.425Z,11.10
2022-10-11T20:43:23.788Z,11.10
2022-10-11T20:46:00.847Z,11.20
2022-10-11T20:48:27.825Z,11.20
2022-10-11T20:50:54.654Z,11.20
2022-10-11T20:53:21.703Z,11.20
2022-10-11T20:55:48.938Z,11.10
2022-10-11T20:58:15.788Z,11.10
2022-10-11T21:00:43.006Z,11.10
2022-10-11T21:03:10.095Z,11.10
2022-10-11T21:05:36.857Z,11.00
2022-10-11T21:08:03.822Z,11.00
2022-10-11T21:10:31.003Z,11.00
2022-10-11T21:12:58.122Z,11.00
2022-10-11T21:15:24.965Z,11.00
2022-10-11T21:17:51.775Z,11.00
2022-10-11T21:20:18.522Z,11.10
2022-10-11T21:22:45.289Z,11.00
2022-10-11T21:25:12.009Z,11.10
2022-10-11T21:27:38.739Z,11.00
2022-10-11T21:30:05.741Z,11.10
2022-10-11T21:32:32.722Z,11.10
2022-10-11T21:34:59.709Z,11.10
2022-10-11T21:37:26.462Z,11.00
2022-10-11T21:39:53.238Z,11.00
2022-10-11T21:42:20.008Z,11.00
2022-10-11T21:44:46.737Z,11.00
2022-10-11T21:47:13.537Z,11.00
2022-10-11T21:49:40.281Z,11.00
2022-10-11T21:52:07.085Z,10.90
2022-10-11T21:54:33.850Z,10.90
2022-10-11T21:57:00.693Z,10.90
2022-10-11T21:59:27.508Z,10.90
2022-10-11T22:01:57.013Z,10.80
2022-10-11T22:04:27.677Z,10.80
2022-10-11T22:06:54.392Z,10.80
2022-10-11T22:09:21.144Z,10.70
2022-10-11T22:11:47.934Z,10.70
2022-10-11T22:14:14.698Z,10.70
2022-10-11T22:16:41.439Z,10.70
2022-10-11T22:19:08.454Z,10.60
2022-10-11T22:21:35.179Z,10.70
2022-10-11T22:24:01.942Z,10.60
2022-10-11T22:26:32.358Z,10.60
2022-10-11T22:29:00.387Z,10.60
2022-10-11T22:31:27.223Z,10.60
2022-10-11T22:33:58.031Z,10.60
2022-10-11T22:36:25.171Z,10.60
2022-10-11T22:38:52.372Z,10.60
2022-10-11T22:41:19.311Z,10.60
2022-10-11T22:43:46.290Z,10.60
2022-10-11T22:46:13.064Z,10.50
2022-10-11T22:48:39.786Z,10.50
2022-10-11T22:51:06.948Z,10.50
2022-10-11T22:53:33.855Z,10.50
2022-10-11T22:56:00.576Z,10.50
2022-10-11T22:58:27.276Z,10.40
2022-10-11T23:00:54.079Z,10.40
2022-10-11T23:03:20.866Z,10.40
2022-10-11T23:05:55.269Z,10.40
2022-10-11T23:08:22.097Z,10.30
2022-10-11T23:10:48.817Z,10.30
2022-10-11T23:13:15.773Z,10.30
2022-10-11T23:15:42.587Z,10.30
2022-10-11T23:18:09.535Z,10.30
2022-10-11T23:20:37.659Z,10.30
2022-10-11T23:23:04.442Z,10.30
2022-10-11T23:25:31.172Z,10.30
2022-10-11T23:27:59.696Z,10.20
2022-10-11T23:30:26.613Z,10.20
2022-10-11T23:32:53.393Z,10.20
2022-10-11T23:35:20.131Z,10.20
2022-10-11T23:37:46.865Z,10.20
2022-10-11T23:40:13.609Z,10.20
2022-10-11T23:42:40.430Z,10.20
2022-10-11T23:45:07.828Z,10.20
2022-10-11T23:47:34.601Z,10.20
2022-10-11T23:50:01.816Z,10.20
2022-10-11T23:52:28.557Z,10.20
2022-10-11T23:54:56.179Z,10.10
2022-10-11T23:57:22.940Z,10.10
2022-10-11T23:59:49.654Z,10.10
